Flight Track Log - Related Links

Times and Time Zones

All times are in EDT time to prevent confusion due to time zone crossing. See the ASQ6151 flight status page for this flight to view local times or setup timezone preferences in your user account.

Time Position Orientation Groundspeed Altitude Reporting Facility
EDT Latitude Longitude Course Direction KTS MPH feet Rate Location/Type
Sun 11:41:31 PM 42.0333 -87.9833 270° West 200 230 3,200  Level Chicago TRACON
Sun 11:42:31 PM 42.0833 -88.0333 323° Northwest 266 306 4,900 2,050 Climbing Chicago TRACON
Sun 11:43:00 PM 41.9669 -88.2306 270° West  Level FlightAware Approximate
Sun 11:43:31 PM 42.1000 -88.1333 283° West 279 321 7,300  Level Chicago TRACON
Sun 11:44:00 PM 41.9670 -88.3408 270° West  Level FlightAware Approximate
Sun 11:44:14 PM 42.0989 -88.1903 269° West 285 328 8,700  Level Chicago Center
Sun 11:45:00 PM 41.9671 -88.4509 270° West  Level FlightAware Approximate
Sun 11:45:15 PM 42.0967 -88.3175 269° West 286 329 10,000  Level Chicago Center
Sun 11:46:00 PM 41.9670 -88.5611 270° West  Level FlightAware Approximate
Sun 11:46:15 PM 42.0925 -88.4383 267° West 314 361 10,000  Level Chicago Center
Sun 11:47:16 PM 42.0894 -88.5747 268° West 356 410 10,000  Level Chicago Center
Sun 11:48:16 PM 42.0867 -88.7131 268° West 370 426 10,000  Level Chicago Center
Sun 11:49:17 PM 42.0822 -88.8519 268° West 365 420 10,000  Level Chicago Center
Sun 11:50:18 PM 42.0361 -88.9644 241° Southwest 371 427 10,000  Level Chicago Center
Sun 11:51:18 PM 41.9483 -89.0200 205° Southwest 357 411 10,000  Level Chicago Center
Sun 11:52:19 PM 41.8556 -89.0683 201° Southwest 361 415 10,000  Level Chicago Center
Sun 11:53:19 PM 41.7628 -89.1183 202° Southwest 363 418 10,000  Level Chicago Center
Sun 11:54:20 PM 41.6683 -89.1678 201° Southwest 367 422 10,000  Level Chicago Center
Sun 11:55:20 PM 41.5744 -89.2192 202° Southwest 368 423 10,000  Level Chicago Center
Sun 11:56:21 PM 41.4811 -89.2683 202° Southwest 368 423 10,000  Level Chicago Center
Sun 11:57:21 PM 41.3831 -89.3203 202° Southwest 376 433 10,000  Level Chicago Center
Sun 11:58:21 PM 41.2883 -89.3703 202° Southwest 371 427 10,000  Level Chicago Center
Sun 11:59:22 PM 41.1975 -89.4289 206° Southwest 360 414 10,000 -645 Level Chicago Center
Mon 12:00:22 AM 41.1117 -89.4978 211° Southwest 302 348 8,700 -1,488 Descending Chicago Center
Mon 12:01:23 AM 41.0442 -89.5522 211° Southwest 286 329 7,000 -1,686 Descending Chicago Center
Mon 12:02:23 AM 40.9775 -89.6050 211° Southwest 282 325 5,300 -1,537 Descending Chicago Center
Mon 12:03:24 AM 40.9125 -89.6569 211° Southwest 274 315 3,900 -1,190 Descending Chicago Center
Mon 12:04:24 AM 40.8494 -89.7072 211° Southwest 269 310 2,900 -750 Descending Chicago Center
Mon 12:05:24 AM 40.7897 -89.7564 212° Southwest 263 303 2,400 -248 Descending Chicago Center
Mon 12:06:25 AM 40.7431 -89.7939 211° Southwest 221 254 2,400 -248 Level Chicago Center
Mon 12:07:25 AM 40.7064 -89.7747 158° South 164 189 1,900 -595 Descending Chicago Center
Mon 12:08:26 AM 40.6853 -89.7347 125° Southeast 140 161 1,200 -545 Descending Chicago Center
Mon 12:09:26 AM 40.6644 -89.6969 126° Southeast 138 159 800 -400 Descending Chicago Center

Login

Don't have an account? Register now (free) for customized features, flight alerts, and more!